Time;durP1;ratioP1;P1;durP2;ratioP2;P2;SDS_P1;SDS_P2;PMS_P1;PMS_P2;Temp;Humidity;BMP_temperature;BMP_pressure;BME280_temperature;BME280_humidity;BME280_pressure;Samples;Min_cycle;Max_cycle;Signal;HPM_P1;HPM_P2
2023/03/05 00:01:17;;;;;;;5.10;2.70;;;;;;;3.26;70.48;100069.64;180803;1270;43618;-68
2023/03/05 00:05:19;;;;;;;17.80;7.40;;;;;;;3.30;70.81;100074.71;180809;1269;43416;-68
2023/03/05 00:09:23;;;;;;;4.50;2.50;;;;;;;3.28;73.36;100075.70;180835;1269;42982;-68
2023/03/05 00:13:26;;;;;;;20.40;8.90;;;;;;;3.23;72.96;100064.40;180804;1269;57950;-69
2023/03/05 00:17:29;;;;;;;19.30;6.10;;;;;;;3.24;71.95;100066.07;180836;1269;43719;-69
2023/03/05 00:21:38;;;;;;;7.70;5.40;;;;;;;3.30;72.04;100065.73;180872;1269;43747;-71
2023/03/05 00:25:41;;;;;;;4.70;2.40;;;;;;;3.39;73.88;100060.33;180761;1269;43088;-69
2023/03/05 00:29:47;;;;;;;5.30;2.40;;;;;;;3.50;74.42;100053.05;180801;1269;43013;-68
2023/03/05 00:34:18;;;;;;;5.40;2.00;;;;;;;3.56;74.91;100043.43;180798;1269;58103;-68
2023/03/05 00:38:21;;;;;;;3.00;1.90;;;;;;;3.53;76.35;100040.45;180816;1270;43715;-68
2023/03/05 00:42:24;;;;;;;5.00;1.20;;;;;;;3.52;77.58;100037.18;180654;1270;43038;-70
2023/03/05 00:46:28;;;;;;;5.20;2.40;;;;;;;3.49;78.85;100027.58;180769;1269;44028;-68
2023/03/05 00:50:34;;;;;;;3.20;2.00;;;;;;;3.40;79.72;100026.11;180863;1270;42961;-70
2023/03/05 00:54:37;;;;;;;5.10;2.70;;;;;;;3.28;80.00;100021.34;180917;1270;59166;-69
2023/03/05 00:58:40;;;;;;;3.40;2.30;;;;;;;3.22;79.43;100020.60;180871;1269;43661;-70
2023/03/05 01:02:47;;;;;;;3.80;1.80;;;;;;;3.24;78.93;100014.92;180845;1268;42964;-69
2023/03/05 01:06:50;;;;;;;2.80;2.10;;;;;;;3.29;79.46;100012.66;180790;1270;43571;-68
2023/03/05 01:10:53;;;;;;;5.70;2.80;;;;;;;3.25;80.21;100007.99;180783;1270;43761;-68
2023/03/05 01:14:56;;;;;;;6.70;2.30;;;;;;;3.29;80.24;100002.88;180651;1270;58001;-68
2023/03/05 01:19:00;;;;;;;5.90;2.10;;;;;;;3.36;79.94;99999.88;180807;1270;43595;-72
2023/03/05 01:23:06;;;;;;;3.00;2.00;;;;;;;3.43;79.25;99994.92;180815;1269;43833;-68
2023/03/05 01:27:09;;;;;;;3.80;2.20;;;;;;;3.44;79.98;99995.89;180848;1268;45444;-68
2023/03/05 01:31:12;;;;;;;7.60;3.40;;;;;;;3.42;80.28;99989.55;180785;1270;43123;-69
2023/03/05 01:35:26;;;;;;;6.20;3.90;;;;;;;3.43;80.28;99984.03;180812;1269;57968;-69
2023/03/05 01:39:29;;;;;;;3.70;2.30;;;;;;;3.42;80.03;99978.50;180890;1270;43014;-70
2023/03/05 01:43:31;;;;;;;7.70;2.80;;;;;;;3.42;79.75;99974.45;180901;1269;43728;-68
2023/03/05 01:47:35;;;;;;;1.80;1.70;;;;;;;3.38;80.88;99980.80;180841;1270;43640;-68
2023/03/05 01:51:55;;;;;;;3.30;2.20;;;;;;;3.24;82.04;99986.16;180818;1269;43025;-68
2023/03/05 01:55:58;;;;;;;4.80;2.30;;;;;;;3.09;82.50;99980.85;180842;1269;59743;-70
2023/03/05 02:00:08;;;;;;;10.10;3.40;;;;;;;3.00;80.74;99982.04;180810;1270;43204;-69
2023/03/05 02:04:26;;;;;;;6.30;4.50;;;;;;;2.93;79.64;99980.86;180719;1271;43027;-68
2023/03/05 02:08:29;;;;;;;5.00;3.50;;;;;;;2.91;78.12;99972.23;180646;1270;43761;-71
2023/03/05 02:12:32;;;;;;;7.40;3.20;;;;;;;2.92;78.07;99967.59;180772;1270;42986;-68
2023/03/05 02:16:36;;;;;;;3.20;2.90;;;;;;;3.04;79.74;99965.39;180797;1270;57947;-68
2023/03/05 02:20:48;;;;;;;8.10;3.10;;;;;;;3.05;81.33;99963.56;180818;1269;43114;-68
2023/03/05 02:24:51;;;;;;;4.40;2.70;;;;;;;3.02;83.30;99955.69;180869;1269;43040;-71
2023/03/05 02:28:58;;;;;;;7.50;4.90;;;;;;;2.97;85.37;99945.43;180863;1269;43140;-68
2023/03/05 02:33:01;;;;;;;13.90;6.80;;;;;;;2.94;86.15;99936.83;180613;1270;43921;-70
2023/03/05 02:42:17;;;;;;;15.00;6.10;;;;;;;2.89;87.34;99927.83;180636;1270;43662;-68
2023/03/05 02:46:21;;;;;;;10.60;4.80;;;;;;;2.93;87.63;99929.55;180879;1270;43672;-68
2023/03/05 02:50:51;;;;;;;;;;;;;;;3.05;88.04;99924.17;180828;1270;43156;-68
2023/03/05 02:55:49;;;;;;;6.00;4.30;;;;;;;3.04;88.76;99916.86;180892;1269;43411;-68
2023/03/05 02:59:52;;;;;;;8.10;3.80;;;;;;;2.95;89.20;99911.91;180869;1270;57961;-69
2023/03/05 03:03:57;;;;;;;7.50;5.30;;;;;;;2.87;89.77;99906.22;180768;1270;43679;-68
2023/03/05 03:08:27;;;;;;;11.90;5.50;;;;;;;2.78;89.28;99901.66;180868;1270;43426;-68
2023/03/05 03:12:39;;;;;;;5.80;4.00;;;;;;;2.69;88.61;99899.98;180818;1270;43110;-70
2023/03/05 03:17:06;;;;;;;5.10;2.80;;;;;;;2.64;88.66;99895.92;179723;1273;43745;-69
2023/03/05 03:21:18;;;;;;;8.30;3.10;;;;;;;2.60;88.71;99890.73;179940;1273;59247;-69
2023/03/05 03:25:21;;;;;;;8.20;4.70;;;;;;;2.58;88.80;99884.53;179957;1276;43004;-69
2023/03/05 03:29:27;;;;;;;11.70;5.10;;;;;;;2.56;89.25;99879.52;179682;1275;43900;-68
2023/03/05 03:33:30;;;;;;;14.60;7.70;;;;;;;2.53;90.13;99872.90;180276;1268;43464;-69
2023/03/05 03:37:33;;;;;;;17.00;7.80;;;;;;;2.50;91.27;99864.98;180893;1269;43056;-68
2023/03/05 03:41:40;;;;;;;21.80;9.50;;;;;;;2.48;92.01;99857.94;180858;1269;58025;-70
2023/03/05 03:45:43;;;;;;;10.90;7.20;;;;;;;2.49;91.96;99850.34;180815;1269;43150;-68
2023/03/05 03:55:34;;;;;;;6.40;4.60;;;;;;;2.45;93.35;99841.48;180827;1270;43145;-68
2023/03/05 03:59:37;;;;;;;11.40;6.10;;;;;;;2.47;93.47;99838.03;180872;1270;43140;-69
2023/03/05 04:03:40;;;;;;;13.40;6.70;;;;;;;2.50;93.19;99833.84;180892;1270;57024;-69
2023/03/05 04:07:44;;;;;;;8.50;4.90;;;;;;;2.53;93.76;99822.64;180873;1268;43596;-69
2023/03/05 04:12:38;;;;;;;17.40;6.00;;;;;;;2.54;94.23;99816.79;180842;1271;43611;-68
2023/03/05 04:16:41;;;;;;;20.00;9.30;;;;;;;2.60;93.93;99811.42;180871;1271;43730;-68
2023/03/05 04:20:43;;;;;;;15.30;7.90;;;;;;;2.58;93.11;99803.64;180843;1269;43761;-68
2023/03/05 04:24:47;;;;;;;11.90;5.80;;;;;;;2.63;92.86;99802.65;180800;1269;57943;-68
2023/03/05 04:34:37;;;;;;;11.10;4.30;;;;;;;2.60;91.70;99792.83;180828;1269;42960;-68
2023/03/05 04:38:39;;;;;;;12.40;4.30;;;;;;;2.59;91.68;99788.33;180857;1270;43117;-68
2023/03/05 04:42:43;;;;;;;8.20;5.70;;;;;;;2.58;91.91;99782.62;180820;1269;43086;-69
2023/03/05 04:46:45;;;;;;;5.60;4.00;;;;;;;2.60;92.13;99781.98;180809;1270;59560;-69
2023/03/05 04:50:48;;;;;;;9.10;6.20;;;;;;;2.66;92.50;99772.90;180893;1270;43028;-69
2023/03/05 04:54:53;;;;;;;11.50;5.50;;;;;;;2.72;92.62;99766.95;180828;1269;43133;-71
2023/03/05 04:59:22;;;;;;;13.60;5.20;;;;;;;2.73;93.24;99756.73;180529;1269;214925;-71
2023/03/05 05:03:25;;;;;;;12.00;4.50;;;;;;;2.78;94.12;99748.23;180845;1270;43719;-71
2023/03/05 05:08:23;;;;;;;7.70;5.80;;;;;;;2.82;94.73;99747.30;180852;1270;60427;-68
2023/03/05 05:12:29;;;;;;;13.30;5.70;;;;;;;2.85;96.05;99748.68;180823;1270;43108;-69
2023/03/05 05:16:32;;;;;;;42.90;9.20;;;;;;;2.87;97.68;99744.56;180722;1270;43148;-70
2023/03/05 05:20:37;;;;;;;15.00;7.50;;;;;;;2.92;98.46;99745.86;180547;1269;43955;-69
2023/03/05 05:24:40;;;;;;;14.40;6.00;;;;;;;2.91;98.99;99746.23;180882;1269;43343;-69
2023/03/05 05:29:49;;;;;;;15.40;8.00;;;;;;;2.94;98.84;99738.20;180882;1269;58058;-69
2023/03/05 05:33:51;;;;;;;18.40;8.60;;;;;;;2.97;98.63;99739.44;180849;1269;43065;-70
2023/03/05 05:37:54;;;;;;;16.60;9.10;;;;;;;3.00;98.64;99735.73;180860;1270;43111;-70
2023/03/05 05:41:57;;;;;;;15.20;7.70;;;;;;;3.00;99.19;99738.74;180799;1271;43703;-70
2023/03/05 05:46:03;;;;;;;13.90;8.80;;;;;;;2.91;100.00;99739.93;180761;1269;43015;-69
2023/03/05 05:50:06;;;;;;;;;;;;;;;2.88;100.00;99742.59;180798;1269;59728;-76
2023/03/05 05:54:13;;;;;;;17.40;7.90;;;;;;;2.83;100.00;99744.98;180821;1269;43092;-74
2023/03/05 05:58:54;;;;;;;;;;;;;;;2.80;100.00;99743.05;180846;1269;43100;-74
2023/03/05 06:02:57;;;;;;;16.70;5.50;;;;;;;2.79;100.00;99751.15;180971;1268;42945;-75
2023/03/05 06:12:36;;;;;;;23.30;7.50;;;;;;;2.75;99.27;99740.91;180822;1269;57931;-71
2023/03/05 06:16:39;;;;;;;13.00;6.40;;;;;;;2.74;98.87;99740.93;180822;1268;43836;-71
2023/03/05 06:20:41;;;;;;;8.50;5.70;;;;;;;2.78;98.09;99744.90;180873;1270;43521;-72
2023/03/05 06:24:44;;;;;;;13.60;7.00;;;;;;;2.87;97.52;99745.27;180758;1270;43540;-71
2023/03/05 06:28:47;;;;;;;7.60;4.70;;;;;;;2.86;94.63;99735.87;180833;1270;43635;-72
2023/03/05 06:32:50;;;;;;;12.20;6.70;;;;;;;2.87;93.47;99737.52;180868;1272;58273;-73
2023/03/05 06:42:40;;;;;;;11.80;7.30;;;;;;;2.83;91.90;99737.77;180866;1270;43029;-72
2023/03/05 06:46:43;;;;;;;8.40;4.40;;;;;;;2.87;90.56;99738.75;180837;1270;43670;-70
2023/03/05 06:50:46;;;;;;;5.60;3.30;;;;;;;2.88;89.52;99746.98;180758;1269;43752;-71
2023/03/05 06:55:14;;;;;;;10.30;4.30;;;;;;;2.92;89.01;99748.30;180803;1270;58065;-72
2023/03/05 06:59:17;;;;;;;5.20;2.90;;;;;;;2.86;87.81;99748.63;180830;1270;43085;-72
2023/03/05 07:03:19;;;;;;;6.00;3.40;;;;;;;2.85;86.01;99747.14;180816;1270;43446;-70
2023/03/05 07:07:22;;;;;;;7.90;1.60;;;;;;;2.80;83.04;99748.47;180858;1270;43081;-73
2023/03/05 07:11:26;;;;;;;7.00;2.00;;;;;;;2.80;83.71;99752.32;180909;1270;43063;-70
2023/03/05 07:16:33;;;;;;;5.20;2.10;;;;;;;2.84;82.92;99748.07;180874;1270;57928;-71
2023/03/05 07:20:36;;;;;;;4.10;1.50;;;;;;;2.77;83.37;99751.10;180864;1269;43331;-71
2023/03/05 07:24:39;;;;;;;7.60;3.10;;;;;;;2.70;83.70;99755.50;180936;1269;43426;-69
2023/03/05 07:28:42;;;;;;;4.00;2.10;;;;;;;2.64;83.51;99761.13;180730;1269;43784;-70
2023/03/05 07:32:45;;;;;;;2.90;1.50;;;;;;;2.56;84.65;99760.70;180788;1270;43002;-69
2023/03/05 07:36:51;;;;;;;7.00;3.10;;;;;;;2.58;86.07;99751.27;180766;1270;58042;-69
2023/03/05 07:40:54;;;;;;;5.30;2.70;;;;;;;2.47;86.83;99757.88;180710;1269;43009;-70
2023/03/05 07:45:15;;;;;;;11.80;2.90;;;;;;;2.63;88.98;99758.52;180811;1268;43826;-70
2023/03/05 07:49:17;;;;;;;6.00;2.70;;;;;;;2.67;89.93;99767.08;180841;1269;43671;-69
2023/03/05 07:53:27;;;;;;;3.80;1.50;;;;;;;2.58;90.72;99762.15;180869;1270;43739;-69
2023/03/05 07:57:30;;;;;;;15.20;3.60;;;;;;;2.66;93.18;99756.74;180812;1269;58699;-72
2023/03/05 08:01:33;;;;;;;4.80;2.30;;;;;;;2.68;92.72;99745.29;180890;1269;43662;-69
2023/03/05 08:06:10;;;;;;;4.50;2.70;;;;;;;2.81;91.76;99750.68;180827;1269;43732;-71
2023/03/05 08:10:12;;;;;;;10.10;2.30;;;;;;;2.85;90.44;99749.21;180844;1268;44037;-73
2023/03/05 08:14:23;;;;;;;14.30;4.30;;;;;;;2.82;90.14;99745.36;180891;1268;43039;-70
2023/03/05 08:19:17;;;;;;;5.40;1.90;;;;;;;2.77;90.94;99744.80;180845;1270;56973;-72
2023/03/05 08:23:20;;;;;;;3.10;2.10;;;;;;;2.36;96.56;99759.71;180851;1270;43802;-70
2023/03/05 08:27:23;;;;;;;8.30;3.40;;;;;;;1.99;97.13;99764.16;180783;1270;43703;-69
2023/03/05 08:31:28;;;;;;;4.50;2.40;;;;;;;1.83;99.34;99761.55;180793;1269;43759;-77
2023/03/05 08:35:36;;;;;;;8.90;3.70;;;;;;;1.82;100.00;99757.56;180808;1270;43897;-73
2023/03/05 08:39:39;;;;;;;9.00;4.80;;;;;;;1.89;100.00;99755.95;180881;1267;58650;-71
2023/03/05 08:43:42;;;;;;;8.40;4.20;;;;;;;2.19;100.00;99748.94;180841;1270;43679;-71
2023/03/05 08:47:51;;;;;;;4.30;2.70;;;;;;;2.45;99.92;99739.74;180804;1267;43070;-71
2023/03/05 08:51:54;;;;;;;6.80;3.00;;;;;;;2.77;99.09;99731.83;180929;1270;43125;-76
2023/03/05 08:56:13;;;;;;;7.40;3.30;;;;;;;3.02;95.49;99725.30;180864;1269;43648;-69
2023/03/05 09:00:16;;;;;;;9.90;4.20;;;;;;;3.25;93.35;99720.92;180759;1268;57933;-69
2023/03/05 09:18:11;;;;;;;6.40;3.80;;;;;;;3.69;78.39;99694.61;158934;1264;44117;-70
2023/03/05 09:22:16;;;;;;;6.50;2.50;;;;;;;3.57;77.65;99696.22;181018;1267;58698;-70
2023/03/05 09:26:20;;;;;;;7.20;3.20;;;;;;;3.57;75.16;99692.23;181112;1267;43182;-70
2023/03/05 09:30:23;;;;;;;8.40;4.30;;;;;;;3.58;75.35;99694.62;181103;1265;43013;-71
2023/03/05 09:34:26;;;;;;;8.20;4.00;;;;;;;3.69;73.96;99688.52;181176;1267;43184;-69
2023/03/05 09:55:29;;;;;;;4.00;3.10;;;;;;;4.10;75.01;99667.64;181241;1265;43158;-73
2023/03/05 09:59:39;;;;;;;5.50;3.40;;;;;;;4.00;74.17;99660.23;181133;1265;43697;-71
2023/03/05 10:03:42;;;;;;;8.10;3.90;;;;;;;4.00;78.17;99668.98;181098;1264;43385;-70
2023/03/05 10:08:12;;;;;;;5.50;3.40;;;;;;;3.85;76.76;99650.11;181211;1264;57918;-71
2023/03/05 10:33:01;;;;;;;8.20;4.90;;;;;;;3.99;76.14;99642.39;181140;1267;57901;-70
2023/03/05 10:37:49;;;;;;;10.60;4.10;;;;;;;3.90;79.34;99650.52;180784;1270;45368;-71
2023/03/05 10:42:30;;;;;;;7.10;4.40;;;;;;;3.88;80.56;99641.54;180750;1270;43703;-71
2023/03/05 10:46:36;;;;;;;11.50;6.10;;;;;;;3.88;79.30;99639.96;180781;1270;43230;-72
2023/03/05 10:50:49;;;;;;;8.20;5.20;;;;;;;3.82;80.15;99631.33;180725;1270;43831;-70
2023/03/05 10:54:52;;;;;;;9.40;5.70;;;;;;;4.03;82.58;99631.23;180585;1270;59248;-71
2023/03/05 10:59:47;;;;;;;14.90;5.10;;;;;;;4.31;81.55;99617.16;180753;1270;43325;-71
2023/03/05 11:04:02;;;;;;;8.00;5.60;;;;;;;4.72;79.84;99616.16;180765;1270;43045;-70
2023/03/05 11:13:53;;;;;;;5.30;4.60;;;;;;;4.97;78.64;99610.77;180965;1264;43854;-70
2023/03/05 11:24:13;;;;;;;4.80;4.00;;;;;;;5.49;77.64;99593.96;180579;1272;43138;-70
2023/03/05 11:28:21;;;;;;;13.30;4.20;;;;;;;5.75;77.15;99594.05;180013;1273;43785;-70
2023/03/05 11:32:34;;;;;;;9.80;4.40;;;;;;;5.90;75.51;99584.02;180300;1273;43664;-70
2023/03/05 11:36:43;;;;;;;3.80;3.50;;;;;;;5.92;74.28;99572.05;180441;1272;43424;-71
2023/03/05 11:40:47;;;;;;;4.80;2.30;;;;;;;5.84;73.17;99575.85;180183;1273;59193;-71
2023/03/05 11:44:54;;;;;;;5.80;4.00;;;;;;;5.59;72.12;99577.44;180376;1272;43174;-72
2023/03/05 11:48:57;;;;;;;4.40;3.30;;;;;;;5.57;72.52;99572.29;180241;1272;43963;-70
2023/03/05 11:53:36;;;;;;;6.30;3.70;;;;;;;5.50;72.28;99561.21;180486;1271;43771;-70
2023/03/05 11:58:25;;;;;;;6.00;3.50;;;;;;;5.48;72.19;99551.16;180192;1265;43195;-71
2023/03/05 12:02:28;;;;;;;4.30;3.10;;;;;;;5.52;72.07;99558.23;181125;1264;59180;-72
2023/03/05 12:07:04;;;;;;;14.60;3.30;;;;;;;5.61;72.09;99542.52;181168;1265;43676;-70
2023/03/05 12:11:16;;;;;;;6.40;3.10;;;;;;;5.69;72.39;99542.41;181156;1264;43194;-70
2023/03/05 12:15:45;;;;;;;10.50;2.90;;;;;;;5.69;72.22;99528.19;181145;1263;43121;-70
2023/03/05 12:25:45;;;;;;;3.10;2.50;;;;;;;5.45;71.62;99521.47;181190;1265;56947;-70
2023/03/05 12:29:53;;;;;;;3.30;2.50;;;;;;;5.37;72.22;99522.91;181054;1263;43682;-68
2023/03/05 12:33:56;;;;;;;3.10;2.40;;;;;;;5.29;73.63;99521.05;181187;1265;43750;-69
2023/03/05 12:38:57;;;;;;;4.50;3.10;;;;;;;5.23;73.37;99515.83;181062;1265;43723;-68
2023/03/05 12:43:35;;;;;;;2.90;1.70;;;;;;;5.25;72.86;99512.33;181185;1265;43085;-68
2023/03/05 12:47:39;;;;;;;4.30;2.50;;;;;;;5.23;71.42;99521.45;181220;1264;58449;-72
2023/03/05 12:51:44;;;;;;;5.70;3.20;;;;;;;5.04;78.52;99542.62;181032;1264;43114;-70
2023/03/05 12:55:47;;;;;;;6.40;2.20;;;;;;;4.58;82.46;99560.08;181127;1264;43725;-68
2023/03/05 13:00:09;;;;;;;4.60;2.60;;;;;;;4.09;85.76;99569.61;181157;1264;43677;-68
2023/03/05 13:04:21;;;;;;;4.20;1.60;;;;;;;3.42;88.07;99576.58;181151;1265;43136;-69
2023/03/05 13:08:25;;;;;;;3.00;2.10;;;;;;;2.89;92.15;99579.80;181100;1265;57949;-71
2023/03/05 13:12:29;;;;;;;3.70;2.70;;;;;;;2.38;98.58;99579.52;181193;1264;43967;-75
2023/03/05 13:16:37;;;;;;;2.00;1.80;;;;;;;2.16;100.00;99580.63;181187;1265;43036;-72
2023/03/05 13:21:30;;;;;;;1.50;1.40;;;;;;;1.92;100.00;99572.00;180755;1268;44074;-76
2023/03/05 13:25:33;;;;;;;20.60;10.90;;;;;;;1.98;100.00;99557.32;180938;1268;43432;-75
2023/03/05 13:29:50;;;;;;;217.10;85.40;;;;;;;2.11;99.48;99549.78;180845;1270;59342;-71
2023/03/05 13:33:58;;;;;;;156.10;64.70;;;;;;;2.41;97.10;99549.91;180743;1268;43150;-70
2023/03/05 13:38:01;;;;;;;17.80;10.50;;;;;;;2.86;95.39;99544.07;180950;1265;43397;-70
2023/03/05 13:42:21;;;;;;;5.40;4.90;;;;;;;3.26;92.01;99542.48;181124;1264;43832;-74
2023/03/05 13:46:37;;;;;;;6.50;4.10;;;;;;;3.45;89.14;99539.21;181053;1264;43208;-72
2023/03/05 13:50:40;;;;;;;6.50;3.30;;;;;;;3.56;84.94;99534.27;181099;1265;57908;-71
2023/03/05 13:54:43;;;;;;;7.30;4.60;;;;;;;3.61;84.80;99530.12;181118;1264;43113;-70
2023/03/05 13:59:00;;;;;;;3.30;2.70;;;;;;;3.68;85.48;99522.66;181050;1264;43572;-70
2023/03/05 14:03:25;;;;;;;5.60;4.10;;;;;;;3.75;86.13;99520.77;181193;1263;43121;-73
2023/03/05 14:07:37;;;;;;;2.20;2.00;;;;;;;3.95;87.40;99517.93;181197;1264;43816;-71
2023/03/05 14:11:39;;;;;;;14.60;4.30;;;;;;;4.06;86.79;99513.65;181155;1265;58293;-70
2023/03/05 14:16:03;;;;;;;2.40;1.90;;;;;;;4.17;85.74;99505.40;181174;1264;43132;-70
2023/03/05 14:20:29;;;;;;;4.30;2.10;;;;;;;4.15;83.39;99502.89;181077;1265;43061;-69
2023/03/05 14:29:45;;;;;;;6.40;2.90;;;;;;;4.16;84.71;99500.20;181179;1264;43365;-70
2023/03/05 14:33:49;;;;;;;33.80;15.70;;;;;;;4.13;82.78;99498.70;181033;1264;57956;-69
2023/03/05 14:37:55;;;;;;;4.40;2.60;;;;;;;4.12;81.91;99497.66;181099;1264;43037;-73
2023/03/05 14:47:37;;;;;;;18.80;6.30;;;;;;;4.15;83.72;99505.70;181208;1264;43077;-69
2023/03/05 14:52:36;;;;;;;1.90;1.40;;;;;;;3.96;85.48;99512.39;181104;1265;43073;-70
2023/03/05 14:56:39;;;;;;;7.20;4.30;;;;;;;3.69;86.26;99511.51;181149;1266;57899;-71
2023/03/05 15:00:42;;;;;;;2.70;2.00;;;;;;;3.61;86.57;99510.16;181092;1265;43722;-71
2023/03/05 15:04:46;;;;;;;2.80;1.60;;;;;;;3.47;86.52;99504.52;181128;1264;43156;-69
2023/03/05 15:09:10;;;;;;;5.00;2.80;;;;;;;3.54;86.84;99497.95;181089;1264;43690;-69
2023/03/05 15:13:16;;;;;;;3.40;1.60;;;;;;;3.45;87.49;99496.28;181265;1264;43228;-69
2023/03/05 15:17:33;;;;;;;3.20;2.70;;;;;;;3.40;89.52;99501.51;181207;1264;58897;-70
2023/03/05 15:21:36;;;;;;;4.40;2.70;;;;;;;3.34;90.27;99494.36;181149;1264;43687;-70
2023/03/05 15:25:39;;;;;;;4.40;1.90;;;;;;;3.30;89.50;99486.14;181113;1264;43697;-72
2023/03/05 15:29:42;;;;;;;2.40;2.20;;;;;;;3.37;89.89;99485.19;181148;1265;43835;-69
2023/03/05 15:33:47;;;;;;;3.20;2.10;;;;;;;3.43;89.83;99485.12;181070;1264;43015;-70
2023/03/05 15:37:51;;;;;;;12.30;2.70;;;;;;;3.42;88.89;99484.36;181024;1265;58651;-74
2023/03/05 15:41:54;;;;;;;2.30;1.70;;;;;;;3.34;88.02;99483.98;181065;1264;43690;-71
2023/03/05 15:45:57;;;;;;;5.70;1.80;;;;;;;3.34;88.18;99487.33;181129;1264;43444;-72
2023/03/05 15:50:01;;;;;;;2.70;1.40;;;;;;;3.31;88.22;99480.52;181099;1264;43691;-71
2023/03/05 15:54:04;;;;;;;4.60;3.00;;;;;;;3.25;88.12;99477.89;181105;1264;43960;-70
2023/03/05 15:59:16;;;;;;;5.70;3.00;;;;;;;3.21;88.76;99482.03;181080;1264;57967;-71
2023/03/05 16:03:18;;;;;;;3.70;2.70;;;;;;;3.19;89.08;99482.14;181183;1264;43950;-71
2023/03/05 16:07:21;;;;;;;3.90;2.00;;;;;;;3.13;89.38;99483.58;181194;1264;43679;-73
2023/03/05 16:11:26;;;;;;;2.40;1.40;;;;;;;3.06;88.78;99483.45;181185;1264;43149;-72
2023/03/05 16:15:31;;;;;;;3.80;2.30;;;;;;;3.02;89.17;99476.69;181110;1264;43747;-71
2023/03/05 16:19:40;;;;;;;2.20;1.10;;;;;;;2.98;89.57;99473.78;181186;1264;58285;-74
2023/03/05 16:23:43;;;;;;;2.40;1.80;;;;;;;2.94;89.93;99475.63;180683;1268;43163;-73
2023/03/05 16:27:46;;;;;;;5.30;3.50;;;;;;;3.02;90.71;99476.38;180893;1268;43876;-74
2023/03/05 16:32:03;;;;;;;5.30;2.60;;;;;;;3.09;91.14;99473.13;180841;1268;43887;-71
2023/03/05 16:36:10;;;;;;;4.50;3.50;;;;;;;3.09;90.63;99477.67;180803;1270;43432;-74
2023/03/05 16:40:13;;;;;;;4.10;3.40;;;;;;;3.16;91.45;99480.61;180953;1265;57908;-71
2023/03/05 16:44:20;;;;;;;2.60;2.30;;;;;;;3.15;92.36;99490.65;181159;1264;43053;-74
2023/03/05 16:48:36;;;;;;;12.90;4.30;;;;;;;3.11;93.09;99496.10;180958;1265;43652;-76
2023/03/05 16:52:42;;;;;;;8.40;3.40;;;;;;;3.04;93.79;99502.54;181082;1265;43747;-79
2023/03/05 16:56:51;;;;;;;5.10;3.40;;;;;;;2.91;95.03;99496.50;181101;1264;43147;-78
2023/03/05 17:01:02;;;;;;;11.30;7.00;;;;;;;2.82;96.94;99494.77;180213;1264;922014;-75
2023/03/05 17:05:08;;;;;;;22.20;11.10;;;;;;;2.72;99.10;99497.67;181081;1264;44055;-72
2023/03/05 17:10:06;;;;;;;29.40;12.70;;;;;;;2.64;99.93;99497.98;181200;1264;43691;-73
2023/03/05 17:14:09;;;;;;;17.10;12.10;;;;;;;2.55;100.00;99498.88;181128;1264;43533;-72
2023/03/05 17:18:47;;;;;;;11.60;8.90;;;;;;;2.50;100.00;99502.50;181090;1263;43688;-75
2023/03/05 17:22:50;;;;;;;18.70;12.00;;;;;;;2.45;100.00;99509.44;181089;1265;59192;-77
2023/03/05 17:27:21;;;;;;;15.70;11.40;;;;;;;2.44;100.00;99506.89;181106;1265;43813;-72
2023/03/05 17:31:24;;;;;;;17.00;9.90;;;;;;;2.51;100.00;99504.91;181136;1264;43785;-70
2023/03/05 17:35:28;;;;;;;14.10;8.00;;;;;;;2.53;100.00;99512.30;181035;1265;43892;-72
2023/03/05 17:39:57;;;;;;;11.70;7.50;;;;;;;2.60;99.88;99513.83;181074;1264;43850;-72
2023/03/05 17:44:01;;;;;;;10.40;6.10;;;;;;;2.56;99.42;99514.05;181078;1265;56971;-74
2023/03/05 17:48:04;;;;;;;7.90;5.80;;;;;;;2.49;99.80;99511.67;181104;1264;43062;-76
2023/03/05 17:52:08;;;;;;;28.10;6.30;;;;;;;2.46;100.00;99514.96;181157;1265;43215;-73
2023/03/05 17:56:15;;;;;;;6.50;4.60;;;;;;;2.45;100.00;99512.41;181069;1264;43467;-72
2023/03/05 18:00:24;;;;;;;6.10;4.90;;;;;;;2.44;100.00;99506.90;181054;1265;43202;-73
2023/03/05 18:04:27;;;;;;;6.50;4.20;;;;;;;2.34;100.00;99500.65;181084;1264;58213;-73
2023/03/05 18:08:30;;;;;;;5.40;4.90;;;;;;;2.28;100.00;99506.27;181029;1265;43979;-74
2023/03/05 18:12:34;;;;;;;7.90;4.90;;;;;;;2.26;100.00;99510.08;181091;1264;43726;-74
2023/03/05 18:16:36;;;;;;;4.90;2.80;;;;;;;2.33;100.00;99507.04;180969;1265;43214;-73
2023/03/05 18:20:40;;;;;;;5.30;4.10;;;;;;;2.19;100.00;99507.45;181167;1264;42995;-73
2023/03/05 18:24:43;;;;;;;9.50;5.30;;;;;;;2.11;100.00;99504.42;181040;1264;58267;-72
2023/03/05 18:28:48;;;;;;;10.00;5.60;;;;;;;2.06;100.00;99503.36;181159;1264;43512;-73
2023/03/05 18:32:51;;;;;;;6.40;3.90;;;;;;;2.00;100.00;99499.50;181196;1264;43112;-74
2023/03/05 18:37:02;;;;;;;6.50;5.80;;;;;;;1.89;100.00;99498.57;181216;1264;43016;-71
2023/03/05 18:41:07;;;;;;;11.60;6.30;;;;;;;1.91;100.00;99498.30;179999;1268;44099;-81
2023/03/05 18:45:13;;;;;;;7.40;6.30;;;;;;;1.88;100.00;99497.21;179922;1268;59685;-82
2023/03/05 18:49:16;;;;;;;11.60;6.40;;;;;;;1.85;100.00;99496.85;180036;1268;43842;-82
2023/03/05 18:53:20;;;;;;;9.80;5.20;;;;;;;1.82;100.00;99492.46;179782;1268;44109;-81
2023/03/05 18:57:23;;;;;;;7.30;5.60;;;;;;;1.80;100.00;99498.04;179962;1268;44213;-82
2023/03/05 19:01:27;;;;;;;10.20;6.60;;;;;;;1.77;100.00;99498.38;179891;1269;43826;-80
2023/03/05 19:05:31;;;;;;;12.70;6.90;;;;;;;1.77;100.00;99489.45;180164;1268;59254;-81
2023/03/05 19:10:10;;;;;;;14.10;8.20;;;;;;;1.76;100.00;99486.72;179868;1268;43812;-81
2023/03/05 19:14:05;;;;;;;6.80;5.90;;;;;;;1.75;100.00;99481.33;179924;1268;43916;-80
2023/03/05 19:18:08;;;;;;;8.90;6.20;;;;;;;1.76;100.00;99477.65;179896;1268;43916;-81
2023/03/05 19:22:10;;;;;;;16.50;7.20;;;;;;;1.72;100.00;99477.31;179792;1269;44175;-81
2023/03/05 19:26:13;;;;;;;8.70;5.30;;;;;;;1.72;100.00;99477.70;179700;1268;59407;-82
2023/03/05 19:30:17;;;;;;;7.60;4.70;;;;;;;1.76;100.00;99474.48;179853;1269;44175;-82
2023/03/05 19:34:20;;;;;;;4.70;3.40;;;;;;;1.78;100.00;99476.46;180083;1269;44019;-82
2023/03/05 19:38:23;;;;;;;7.30;2.90;;;;;;;1.78;100.00;99478.03;180130;1268;43855;-81
2023/03/05 19:42:26;;;;;;;5.70;4.50;;;;;;;1.83;100.00;99477.41;180090;1269;44108;-82
2023/03/05 19:46:30;;;;;;;5.40;4.00;;;;;;;1.85;100.00;99473.62;179714;1270;58479;-82
2023/03/05 19:50:33;;;;;;;8.00;3.90;;;;;;;1.87;100.00;99477.68;179951;1268;43793;-83
2023/03/05 19:54:36;;;;;;;9.90;4.70;;;;;;;1.90;100.00;99471.58;179904;1268;44942;-84
2023/03/05 19:58:44;;;;;;;4.80;3.00;;;;;;;1.90;100.00;99471.05;179904;1268;43866;-83
2023/03/05 20:02:47;;;;;;;8.10;4.10;;;;;;;1.91;100.00;99469.96;180065;1269;43903;-83
2023/03/05 20:06:50;;;;;;;5.60;3.60;;;;;;;1.92;100.00;99468.31;180010;1268;59570;-83
2023/03/05 20:10:53;;;;;;;4.20;2.50;;;;;;;1.92;100.00;99464.96;180003;1268;43972;-83
2023/03/05 20:14:57;;;;;;;4.40;3.40;;;;;;;1.89;100.00;99463.27;179779;1268;44308;-82
2023/03/05 20:19:01;;;;;;;6.20;4.00;;;;;;;1.89;100.00;99466.02;179972;1268;44112;-83
2023/03/05 20:23:05;;;;;;;2.30;2.10;;;;;;;1.85;100.00;99465.24;179806;1269;44142;-83
2023/03/05 20:27:08;;;;;;;4.00;3.10;;;;;;;1.85;100.00;99467.98;180114;1269;58575;-83
2023/03/05 20:31:13;;;;;;;4.20;2.30;;;;;;;1.87;100.00;99465.46;179915;1268;44103;-82
2023/03/05 20:35:25;;;;;;;7.40;3.00;;;;;;;1.89;100.00;99460.27;179662;1270;44920;-84
2023/03/05 20:39:37;;;;;;;9.90;3.50;;;;;;;1.96;100.00;99463.16;179643;1269;43816;-84
2023/03/05 20:43:46;;;;;;;6.30;3.80;;;;;;;2.02;100.00;99461.06;179697;1270;44809;-83
2023/03/05 20:47:55;;;;;;;7.60;4.40;;;;;;;2.07;100.00;99465.02;179604;1270;61717;-82
2023/03/05 20:51:58;;;;;;;6.60;4.40;;;;;;;2.11;100.00;99466.83;179773;1268;43941;-81
2023/03/05 20:56:01;;;;;;;7.30;4.30;;;;;;;2.12;100.00;99468.02;179812;1270;43967;-82
2023/03/05 21:00:06;;;;;;;7.30;6.20;;;;;;;2.11;100.00;99466.15;179694;1270;44725;-83
2023/03/05 21:04:10;;;;;;;8.40;6.20;;;;;;;2.04;100.00;99466.55;179802;1270;44180;-82
2023/03/05 21:08:13;;;;;;;6.90;5.70;;;;;;;2.04;100.00;99465.19;179586;1270;58027;-83
2023/03/05 21:12:16;;;;;;;12.70;7.50;;;;;;;2.05;100.00;99461.44;179814;1269;44167;-82
2023/03/05 21:16:22;;;;;;;12.80;8.80;;;;;;;2.08;100.00;99453.57;179744;1270;44133;-84